createdAt,value
2023-04-28T00:01:21.158Z,9.07
2023-04-28T00:03:53.638Z,9.03
2023-04-28T00:06:26.408Z,8.97
2023-04-28T00:08:58.925Z,8.99
2023-04-28T00:11:31.128Z,8.99
2023-04-28T00:14:03.457Z,9.00
2023-04-28T00:16:36.277Z,8.98
2023-04-28T00:19:09.664Z,8.95
2023-04-28T00:21:41.974Z,8.95
2023-04-28T00:24:14.536Z,8.95
2023-04-28T00:26:46.963Z,8.95
2023-04-28T00:29:19.338Z,8.96
2023-04-28T00:31:51.670Z,8.98
2023-04-28T00:34:24.068Z,8.98
2023-04-28T00:36:56.475Z,8.97
2023-04-28T00:39:28.880Z,8.94
2023-04-28T00:42:02.298Z,8.94
2023-04-28T00:44:34.589Z,8.98
2023-04-28T00:47:07.263Z,9.01
2023-04-28T00:49:39.841Z,9.02
2023-04-28T00:52:12.702Z,9.01
2023-04-28T00:54:45.132Z,9.00
2023-04-28T00:57:17.449Z,8.97
2023-04-28T00:59:49.752Z,8.96
2023-04-28T01:02:22.352Z,8.97
2023-04-28T01:04:57.484Z,8.99
2023-04-28T01:07:29.854Z,8.99
2023-04-28T01:10:02.340Z,9.02
2023-04-28T01:12:34.718Z,9.05
2023-04-28T01:15:09.115Z,9.08
2023-04-28T01:17:41.548Z,9.11
2023-04-28T01:20:15.268Z,9.12
2023-04-28T01:22:47.606Z,9.14
2023-04-28T01:25:20.388Z,9.16
2023-04-28T01:27:52.905Z,9.16
2023-04-28T01:30:25.173Z,9.16
2023-04-28T01:32:57.422Z,9.14
2023-04-28T01:35:29.883Z,9.15
2023-04-28T01:38:02.162Z,9.16
2023-04-28T01:40:34.918Z,9.15
2023-04-28T01:43:07.302Z,9.16
2023-04-28T01:45:39.617Z,9.19
2023-04-28T01:48:12.114Z,9.22
2023-04-28T01:50:44.513Z,9.22
2023-04-28T01:53:20.703Z,9.22
2023-04-28T01:55:53.048Z,9.20
2023-04-28T01:58:26.990Z,9.17
2023-04-28T02:00:59.908Z,9.04
2023-04-28T02:03:32.384Z,8.93
2023-04-28T02:06:05.230Z,8.85
2023-04-28T02:08:37.467Z,8.77
2023-04-28T02:11:09.730Z,8.73
2023-04-28T02:13:42.440Z,8.66
2023-04-28T02:16:14.849Z,8.57
2023-04-28T02:18:47.306Z,8.45
2023-04-28T02:21:19.797Z,8.37
2023-04-28T02:23:52.302Z,8.25
2023-04-28T02:26:24.638Z,8.19
2023-04-28T02:28:57.015Z,8.19
2023-04-28T02:31:29.302Z,8.14
2023-04-28T02:34:01.923Z,8.09
2023-04-28T02:36:34.420Z,8.06
2023-04-28T02:39:06.976Z,8.04
2023-04-28T02:41:39.244Z,8.04
2023-04-28T02:44:11.564Z,8.02
2023-04-28T02:46:44.044Z,7.99
2023-04-28T02:49:16.551Z,7.92
2023-04-28T02:51:48.845Z,7.89
2023-04-28T02:54:27.749Z,7.86
2023-04-28T02:57:01.538Z,7.83
2023-04-28T02:59:33.968Z,7.83
2023-04-28T03:02:06.303Z,7.86
2023-04-28T03:04:38.783Z,7.88
2023-04-28T03:07:11.178Z,7.87
2023-04-28T03:09:43.523Z,7.85
2023-04-28T03:12:15.849Z,7.83
2023-04-28T03:14:48.240Z,7.83
2023-04-28T03:17:20.935Z,7.80
2023-04-28T03:19:53.252Z,7.77
2023-04-28T03:22:25.692Z,7.71
2023-04-28T03:24:57.960Z,7.64
2023-04-28T03:27:30.641Z,7.56
2023-04-28T03:30:02.812Z,7.49
2023-04-28T03:32:35.139Z,7.43
2023-04-28T03:35:08.087Z,7.34
2023-04-28T03:37:40.889Z,7.23
2023-04-28T03:40:14.517Z,7.16
2023-04-28T03:42:47.064Z,7.08
2023-04-28T03:45:19.636Z,6.99
2023-04-28T03:47:51.915Z,6.98
2023-04-28T03:50:26.535Z,6.98
2023-04-28T03:52:59.314Z,6.99
2023-04-28T03:55:31.835Z,6.97
2023-04-28T03:58:04.468Z,6.94
2023-04-28T04:00:36.852Z,6.97
2023-04-28T04:03:09.446Z,6.98
2023-04-28T04:05:42.729Z,7.01
2023-04-28T04:08:15.136Z,7.10
2023-04-28T04:10:47.596Z,7.17
2023-04-28T04:13:20.019Z,7.14
2023-04-28T04:15:53.381Z,7.13
2023-04-28T04:18:25.853Z,7.10
2023-04-28T04:20:58.157Z,7.08
2023-04-28T04:23:30.518Z,7.10
2023-04-28T04:26:02.836Z,7.09
2023-04-28T04:28:35.170Z,7.06
2023-04-28T04:31:08.691Z,7.06
2023-04-28T04:33:41.360Z,7.10
2023-04-28T04:36:13.743Z,7.19
2023-04-28T04:38:46.170Z,7.28
2023-04-28T04:41:20.851Z,7.38
2023-04-28T04:43:53.138Z,7.48
2023-04-28T04:46:25.807Z,7.56
2023-04-28T04:48:58.281Z,7.58
2023-04-28T04:51:30.667Z,7.58
2023-04-28T04:54:02.961Z,7.64
2023-04-28T04:56:35.371Z,7.67
2023-04-28T04:59:08.566Z,7.69
2023-04-28T05:01:40.936Z,7.71
2023-04-28T05:04:13.627Z,7.73
2023-04-28T05:06:46.248Z,7.77
2023-04-28T05:09:18.690Z,7.81
2023-04-28T05:11:51.000Z,7.85
2023-04-28T05:14:23.348Z,7.89
2023-04-28T05:16:55.927Z,7.91
2023-04-28T05:19:28.368Z,7.93
2023-04-28T05:22:01.839Z,7.99
2023-04-28T05:24:34.366Z,8.08
2023-04-28T05:27:06.790Z,8.11
2023-04-28T05:29:39.250Z,8.15
2023-04-28T05:32:11.582Z,8.25
2023-04-28T05:34:43.947Z,8.34
2023-04-28T05:37:16.174Z,8.42
2023-04-28T05:39:48.543Z,8.55
2023-04-28T05:42:20.894Z,8.68
2023-04-28T05:44:53.124Z,8.83
2023-04-28T05:47:25.919Z,8.92
2023-04-28T05:49:58.319Z,9.02
2023-04-28T05:52:30.823Z,9.11
2023-04-28T05:55:03.616Z,9.21
2023-04-28T05:57:49.334Z,9.32
2023-04-28T06:00:24.883Z,9.42
2023-04-28T06:02:57.521Z,9.48
2023-04-28T06:05:30.738Z,9.56
2023-04-28T06:08:03.618Z,9.67
2023-04-28T06:10:36.086Z,9.78
2023-04-28T06:13:09.266Z,9.89
2023-04-28T06:15:41.562Z,10.02
2023-04-28T06:18:16.258Z,10.18
2023-04-28T06:20:48.652Z,10.26
2023-04-28T06:23:20.845Z,10.35
2023-04-28T06:25:53.233Z,10.45
2023-04-28T06:28:25.635Z,10.49
2023-04-28T06:31:00.034Z,10.54
2023-04-28T06:33:32.474Z,10.59
2023-04-28T06:36:05.280Z,10.63
2023-04-28T06:38:37.697Z,10.65
2023-04-28T06:41:17.113Z,10.63
2023-04-28T06:43:51.006Z,10.62
2023-04-28T06:46:23.482Z,10.64
2023-04-28T06:48:56.114Z,10.65
2023-04-28T06:51:28.908Z,10.66
2023-04-28T06:54:01.383Z,10.69
2023-04-28T06:56:33.792Z,10.72
2023-04-28T06:59:06.280Z,10.81
2023-04-28T07:01:38.704Z,10.92
2023-04-28T07:04:11.285Z,11.04
2023-04-28T07:06:44.011Z,11.15
2023-04-28T07:09:18.112Z,11.25
2023-04-28T07:11:50.392Z,11.39
2023-04-28T07:14:28.256Z,11.46
2023-04-28T07:17:01.166Z,11.54
2023-04-28T07:19:33.563Z,11.68
2023-04-28T07:22:05.951Z,11.82
2023-04-28T07:24:38.286Z,11.91
2023-04-28T07:27:10.566Z,11.92
2023-04-28T07:29:43.002Z,11.92
2023-04-28T07:32:15.422Z,11.93
2023-04-28T07:34:48.226Z,11.96
2023-04-28T07:37:21.048Z,12.07
2023-04-28T07:39:53.565Z,12.25
2023-04-28T07:42:26.148Z,12.27
2023-04-28T07:44:59.046Z,12.28
2023-04-28T07:47:31.692Z,12.35
2023-04-28T07:50:05.446Z,12.38
2023-04-28T07:52:38.228Z,12.41
2023-04-28T07:55:11.923Z,12.52
2023-04-28T07:57:44.808Z,12.65
2023-04-28T08:00:19.500Z,12.91
2023-04-28T08:02:59.499Z,13.38
2023-04-28T08:05:32.606Z,13.68
2023-04-28T08:08:05.448Z,13.93
2023-04-28T08:10:38.313Z,14.09
2023-04-28T08:13:13.334Z,14.06
2023-04-28T08:16:03.322Z,14.25
2023-04-28T08:18:53.626Z,14.43
2023-04-28T08:21:26.064Z,14.59
2023-04-28T08:23:58.317Z,14.81
2023-04-28T08:26:33.709Z,14.91
2023-04-28T08:29:06.164Z,14.85
2023-04-28T08:31:38.703Z,14.75
2023-04-28T08:34:11.057Z,14.36
2023-04-28T08:36:43.419Z,14.31
2023-04-28T08:39:16.171Z,14.60
2023-04-28T08:41:48.639Z,15.12
2023-04-28T08:44:23.760Z,15.54
2023-04-28T08:47:01.373Z,15.55
2023-04-28T08:49:38.379Z,15.45
2023-04-28T08:52:13.972Z,15.34
2023-04-28T08:54:49.729Z,15.09
2023-04-28T08:57:23.695Z,14.52
2023-04-28T08:59:57.022Z,14.09
2023-04-28T09:02:29.612Z,14.15
2023-04-28T09:05:02.525Z,14.22
2023-04-28T09:07:35.407Z,14.07
2023-04-28T09:10:22.501Z,14.01
2023-04-28T09:12:58.125Z,13.84
2023-04-28T09:15:34.134Z,13.79
2023-04-28T09:18:08.204Z,13.73
2023-04-28T09:20:43.496Z,13.60
2023-04-28T09:23:21.237Z,13.40
2023-04-28T09:26:13.075Z,13.19
2023-04-28T09:28:45.505Z,13.25
2023-04-28T09:31:28.813Z,13.55
2023-04-28T09:34:01.825Z,13.69
2023-04-28T09:36:34.229Z,13.69
2023-04-28T09:39:06.692Z,13.58
2023-04-28T09:41:42.738Z,13.41
2023-04-28T09:44:21.513Z,13.33
2023-04-28T09:46:53.895Z,13.23
2023-04-28T09:49:26.230Z,13.26
2023-04-28T09:52:15.203Z,13.23
2023-04-28T09:54:47.866Z,13.20
2023-04-28T09:57:21.434Z,13.20
2023-04-28T09:59:54.666Z,13.30
2023-04-28T10:05:03.624Z,13.30
2023-04-28T10:07:36.907Z,13.34
2023-04-28T10:10:10.996Z,13.45
2023-04-28T10:12:44.951Z,13.56
2023-04-28T10:15:17.467Z,13.58
2023-04-28T10:17:52.112Z,13.55
2023-04-28T10:20:26.269Z,13.48
2023-04-28T10:23:18.209Z,13.44
2023-04-28T10:25:54.396Z,13.39
2023-04-28T10:28:27.874Z,13.31
2023-04-28T10:31:17.723Z,13.17
2023-04-28T10:33:50.868Z,13.21
2023-04-28T10:36:51.095Z,13.58
2023-04-28T10:39:23.566Z,13.91
2023-04-28T10:41:56.136Z,13.92
2023-04-28T10:44:46.947Z,13.86
2023-04-28T10:47:19.264Z,13.84
2023-04-28T10:50:12.489Z,13.73
2023-04-28T10:52:54.199Z,13.62
2023-04-28T10:55:36.647Z,13.58
2023-04-28T10:58:37.736Z,13.55
2023-04-28T11:01:32.195Z,13.54
2023-04-28T11:04:13.254Z,13.60
2023-04-28T11:06:47.108Z,13.69
2023-04-28T11:09:52.861Z,13.76
2023-04-28T11:12:25.203Z,13.78
2023-04-28T11:14:57.638Z,13.79
2023-04-28T11:17:43.289Z,13.74
2023-04-28T11:20:16.711Z,13.79
2023-04-28T11:22:53.793Z,13.87
2023-04-28T11:25:26.138Z,13.91
2023-04-28T11:28:08.834Z,13.91
2023-04-28T11:30:41.242Z,13.97
2023-04-28T11:33:14.173Z,14.10
2023-04-28T11:35:46.897Z,14.15
2023-04-28T11:38:19.218Z,14.26
2023-04-28T11:41:01.254Z,14.27
2023-04-28T11:43:46.510Z,14.21
2023-04-28T11:46:25.078Z,14.12
2023-04-28T11:49:07.695Z,14.13
2023-04-28T11:51:41.779Z,14.14
2023-04-28T11:54:15.192Z,14.18
2023-04-28T11:56:47.595Z,14.20
2023-04-28T12:02:01.179Z,14.31
2023-04-28T12:04:36.617Z,14.37
2023-04-28T12:07:11.882Z,14.44
2023-04-28T12:09:45.927Z,14.44
2023-04-28T12:12:40.159Z,14.46
2023-04-28T12:15:19.979Z,14.46
2023-04-28T12:17:52.884Z,14.45
2023-04-28T12:20:41.377Z,14.45
2023-04-28T12:23:13.733Z,14.42
2023-04-28T12:25:49.857Z,14.41
2023-04-28T12:28:22.025Z,14.41
2023-04-28T12:31:08.544Z,14.41
2023-04-28T12:33:41.336Z,14.36
2023-04-28T12:36:13.825Z,14.45
2023-04-28T12:38:52.439Z,14.48
2023-04-28T12:41:25.546Z,14.48
2023-04-28T12:43:58.335Z,14.51
2023-04-28T12:46:32.167Z,14.50
2023-04-28T12:49:04.554Z,14.52
2023-04-28T12:51:38.972Z,14.52
2023-04-28T12:54:11.620Z,14.55
2023-04-28T12:56:43.947Z,14.56
2023-04-28T12:59:16.551Z,14.58
2023-04-28T13:01:49.175Z,14.60
2023-04-28T13:04:21.879Z,14.63
2023-04-28T13:06:55.591Z,14.66
2023-04-28T13:09:28.429Z,14.67
2023-04-28T13:12:04.144Z,14.67
2023-04-28T13:14:36.347Z,14.67
2023-04-28T13:17:09.187Z,14.71
2023-04-28T13:19:41.469Z,14.75
2023-04-28T13:22:13.899Z,14.78
2023-04-28T13:24:46.857Z,14.81
2023-04-28T13:27:20.219Z,14.79
2023-04-28T13:29:52.947Z,14.82
2023-04-28T13:32:25.318Z,14.83
2023-04-28T13:34:57.763Z,14.84
2023-04-28T13:37:30.062Z,14.84
2023-04-28T13:40:04.334Z,14.86
2023-04-28T13:42:37.027Z,14.89
2023-04-28T13:45:11.185Z,14.87
2023-04-28T13:47:43.513Z,14.83
2023-04-28T13:50:16.052Z,14.80
2023-04-28T13:52:48.659Z,14.82
2023-04-28T13:55:27.627Z,14.86
2023-04-28T13:58:04.795Z,14.91
2023-04-28T14:00:37.776Z,14.94
2023-04-28T14:03:10.378Z,14.98
2023-04-28T14:05:49.428Z,15.02
2023-04-28T14:08:23.328Z,15.03
2023-04-28T14:10:56.084Z,15.02
2023-04-28T14:13:29.859Z,15.02
2023-04-28T14:16:02.344Z,15.00
2023-04-28T14:18:34.616Z,14.96
2023-04-28T14:21:08.611Z,14.93
2023-04-28T14:23:41.130Z,14.93
2023-04-28T14:26:13.373Z,14.96
2023-04-28T14:28:45.797Z,15.00
2023-04-28T14:31:18.259Z,15.05
2023-04-28T14:33:50.659Z,15.10
2023-04-28T14:36:23.098Z,15.14
2023-04-28T14:38:55.368Z,15.17
2023-04-28T14:41:27.706Z,15.22
2023-04-28T14:43:59.984Z,15.27
2023-04-28T14:46:32.392Z,15.31
2023-04-28T14:49:06.130Z,15.33
2023-04-28T14:51:38.449Z,15.33
2023-04-28T14:54:11.785Z,15.35
2023-04-28T14:56:44.222Z,15.35
2023-04-28T14:59:16.486Z,15.30
2023-04-28T15:01:50.812Z,15.30
2023-04-28T15:04:28.871Z,15.34
2023-04-28T15:07:02.125Z,15.41
2023-04-28T15:09:34.485Z,15.48
2023-04-28T15:12:10.034Z,15.53
2023-04-28T15:14:42.513Z,15.58
2023-04-28T15:17:15.294Z,15.59
2023-04-28T15:19:47.750Z,15.61
2023-04-28T15:22:24.632Z,15.61
2023-04-28T15:24:57.027Z,15.64
2023-04-28T15:27:29.657Z,15.68
2023-04-28T15:30:02.748Z,15.71
2023-04-28T15:32:35.386Z,15.71
2023-04-28T15:35:10.712Z,15.66
2023-04-28T15:37:47.745Z,15.65
2023-04-28T15:40:21.506Z,15.66
2023-04-28T15:42:53.913Z,15.63
2023-04-28T15:45:26.582Z,15.60
2023-04-28T15:47:58.996Z,15.55
2023-04-28T15:50:32.014Z,15.53
2023-04-28T15:53:04.358Z,15.48
2023-04-28T15:55:39.838Z,15.45
2023-04-28T15:58:12.293Z,15.44
2023-04-28T16:00:46.048Z,15.44
2023-04-28T16:03:19.253Z,15.46
2023-04-28T16:05:54.299Z,15.46
2023-04-28T16:08:26.580Z,15.42
2023-04-28T16:10:58.929Z,15.40
2023-04-28T16:13:33.143Z,15.37
2023-04-28T16:16:09.795Z,15.34
2023-04-28T16:18:44.445Z,15.33
2023-04-28T16:21:18.036Z,15.30
2023-04-28T16:23:51.491Z,15.27
2023-04-28T16:26:24.217Z,15.25
2023-04-28T16:28:56.614Z,15.20
2023-04-28T16:31:29.059Z,15.16
2023-04-28T16:34:01.470Z,15.13
2023-04-28T16:36:34.727Z,15.10
2023-04-28T16:39:07.219Z,15.08
2023-04-28T16:41:39.524Z,15.06
2023-04-28T16:44:12.295Z,15.02
2023-04-28T16:46:44.639Z,15.00
2023-04-28T16:49:16.985Z,14.95
2023-04-28T16:52:00.983Z,14.94
2023-04-28T16:54:34.392Z,14.91
2023-04-28T16:57:07.859Z,14.87
2023-04-28T16:59:40.300Z,14.84
2023-04-28T17:02:12.750Z,14.81
2023-04-28T17:04:45.143Z,14.75
2023-04-28T17:07:17.445Z,14.74
2023-04-28T17:09:50.016Z,14.73
2023-04-28T17:12:23.447Z,14.65
2023-04-28T17:14:55.842Z,14.57
2023-04-28T17:17:29.304Z,14.53
2023-04-28T17:20:02.481Z,14.47
2023-04-28T17:22:36.071Z,14.43
2023-04-28T17:25:10.120Z,14.41
2023-04-28T17:27:42.461Z,14.36
2023-04-28T17:30:15.406Z,14.35
2023-04-28T17:32:47.804Z,14.33
2023-04-28T17:35:20.370Z,14.29
2023-04-28T17:37:52.808Z,14.22
2023-04-28T17:40:25.533Z,14.19
2023-04-28T17:42:58.755Z,14.15
2023-04-28T17:45:31.091Z,14.09
2023-04-28T17:48:04.234Z,14.07
2023-04-28T17:50:36.773Z,14.04
2023-04-28T17:53:09.004Z,14.03
2023-04-28T17:55:41.444Z,13.98
2023-04-28T17:58:13.838Z,13.94
2023-04-28T18:00:46.572Z,13.91
2023-04-28T18:03:18.884Z,13.85
2023-04-28T18:05:51.504Z,13.77
2023-04-28T18:08:23.794Z,13.68
2023-04-28T18:10:56.478Z,13.61
2023-04-28T18:13:28.915Z,13.54
2023-04-28T18:16:01.361Z,13.49
2023-04-28T18:18:35.608Z,13.46
2023-04-28T18:21:08.372Z,13.44
2023-04-28T18:23:40.713Z,13.42
2023-04-28T18:26:13.063Z,13.42
2023-04-28T18:28:49.196Z,13.38
2023-04-28T18:31:21.619Z,13.31
2023-04-28T18:33:55.397Z,13.27
2023-04-28T18:36:27.995Z,13.23
2023-04-28T18:39:01.916Z,13.21
2023-04-28T18:41:35.093Z,13.18
2023-04-28T18:44:07.443Z,13.14
2023-04-28T18:46:40.007Z,13.09
2023-04-28T18:49:12.881Z,13.06
2023-04-28T18:51:45.277Z,13.01
2023-04-28T18:54:18.021Z,12.92
2023-04-28T18:56:52.674Z,12.91
2023-04-28T18:59:26.492Z,12.86
2023-04-28T19:01:58.857Z,12.79
2023-04-28T19:04:32.338Z,12.71
2023-04-28T19:07:04.704Z,12.66
2023-04-28T19:09:37.024Z,12.61
2023-04-28T19:12:09.543Z,12.55
2023-04-28T19:14:42.397Z,12.49
2023-04-28T19:17:15.497Z,12.49
2023-04-28T19:19:48.019Z,12.50
2023-04-28T19:22:35.438Z,12.52
2023-04-28T19:25:09.180Z,12.55
2023-04-28T19:27:43.134Z,12.53
2023-04-28T19:30:16.896Z,12.52
2023-04-28T19:32:49.293Z,12.55
2023-04-28T19:35:22.382Z,12.58
2023-04-28T19:37:55.994Z,12.60
2023-04-28T19:40:29.144Z,12.63
2023-04-28T19:43:01.597Z,12.66
2023-04-28T19:45:35.215Z,12.66
2023-04-28T19:48:08.210Z,12.65
2023-04-28T19:50:40.584Z,12.65
2023-04-28T19:53:13.064Z,12.64
2023-04-28T19:55:45.398Z,12.63
2023-04-28T19:58:18.446Z,12.61
2023-04-28T20:00:51.088Z,12.59
2023-04-28T20:03:23.612Z,12.58
2023-04-28T20:05:56.446Z,12.57
2023-04-28T20:08:29.646Z,12.56
2023-04-28T20:11:01.891Z,12.52
2023-04-28T20:13:34.982Z,12.47
2023-04-28T20:16:07.393Z,12.41
2023-04-28T20:18:39.824Z,12.37
2023-04-28T20:21:12.129Z,12.34
2023-04-28T20:23:44.386Z,12.31
2023-04-28T20:26:17.781Z,12.28
2023-04-28T20:28:50.656Z,12.25
2023-04-28T20:31:23.784Z,12.21
2023-04-28T20:33:56.241Z,12.15
2023-04-28T20:36:29.919Z,12.10
2023-04-28T20:39:02.287Z,12.08
2023-04-28T20:41:34.570Z,12.06
2023-04-28T20:44:06.805Z,12.02
2023-04-28T20:46:39.182Z,11.98
2023-04-28T20:49:12.508Z,11.94
2023-04-28T20:51:46.218Z,11.89
2023-04-28T20:54:18.527Z,11.81
2023-04-28T20:56:50.880Z,11.82
2023-04-28T20:59:23.139Z,11.78
2023-04-28T21:01:55.861Z,11.74
2023-04-28T21:04:28.579Z,11.69
2023-04-28T21:07:00.970Z,11.64
2023-04-28T21:09:33.359Z,11.61
2023-04-28T21:12:06.069Z,11.57
2023-04-28T21:14:38.509Z,11.55
2023-04-28T21:17:10.872Z,11.52
2023-04-28T21:19:43.218Z,11.51
2023-04-28T21:22:15.529Z,11.50
2023-04-28T21:24:47.974Z,11.50
2023-04-28T21:27:20.318Z,11.49
2023-04-28T21:29:52.982Z,11.48
2023-04-28T21:32:25.689Z,11.46
2023-04-28T21:34:58.147Z,11.43
2023-04-28T21:37:31.839Z,11.41
2023-04-28T21:40:04.533Z,11.37
2023-04-28T21:42:36.840Z,11.38
2023-04-28T21:45:11.050Z,11.36
2023-04-28T21:47:43.674Z,11.34
2023-04-28T21:50:16.360Z,11.32
2023-04-28T21:52:48.664Z,11.30
2023-04-28T21:55:21.012Z,11.26
2023-04-28T21:57:54.239Z,11.22
2023-04-28T22:00:26.937Z,11.18
2023-04-28T22:03:00.495Z,11.14
2023-04-28T22:05:32.938Z,11.11
2023-04-28T22:08:05.758Z,11.08
2023-04-28T22:10:38.128Z,11.06
2023-04-28T22:13:10.507Z,11.06
2023-04-28T22:15:43.125Z,11.04
2023-04-28T22:18:15.365Z,11.04
2023-04-28T22:20:50.177Z,11.02
2023-04-28T22:23:22.433Z,11.01
2023-04-28T22:25:54.767Z,10.99
2023-04-28T22:28:27.699Z,10.96
2023-04-28T22:31:00.134Z,10.93
2023-04-28T22:33:33.006Z,10.90
2023-04-28T22:36:05.569Z,10.88
2023-04-28T22:38:37.861Z,10.85
2023-04-28T22:41:10.232Z,10.82
2023-04-28T22:43:42.997Z,10.81
2023-04-28T22:46:15.259Z,10.78
2023-04-28T22:48:47.540Z,10.75
2023-04-28T22:51:19.908Z,10.73
2023-04-28T22:53:54.371Z,10.71
2023-04-28T22:56:26.859Z,10.69
2023-04-28T22:58:59.302Z,10.68
2023-04-28T23:01:32.127Z,10.67
2023-04-28T23:04:04.749Z,10.65
2023-04-28T23:06:37.130Z,10.63
2023-04-28T23:09:09.337Z,10.62
2023-04-28T23:11:41.621Z,10.60
2023-04-28T23:14:13.921Z,10.59
2023-04-28T23:16:46.337Z,10.56
2023-04-28T23:19:20.624Z,10.53
2023-04-28T23:21:54.509Z,10.51
2023-04-28T23:24:27.926Z,10.49
2023-04-28T23:27:00.694Z,10.47
2023-04-28T23:29:33.254Z,10.45
2023-04-28T23:32:06.060Z,10.43
2023-04-28T23:34:41.804Z,10.41
2023-04-28T23:37:12.606Z,10.39
2023-04-28T23:39:44.845Z,10.36
2023-04-28T23:42:17.610Z,10.36
2023-04-28T23:44:50.133Z,10.36
2023-04-28T23:47:22.670Z,10.36
2023-04-28T23:49:55.014Z,10.36
2023-04-28T23:52:27.297Z,10.36
2023-04-28T23:54:59.652Z,10.35
2023-04-28T23:57:31.943Z,10.35
